createdAt,value
2023-05-06T07:36:00.613Z,89.20
2023-05-06T07:37:00.528Z,88.62
2023-05-06T07:38:00.531Z,89.01
2023-05-06T07:39:00.530Z,88.81
2023-05-06T07:40:00.544Z,88.86
2023-05-06T07:41:00.541Z,88.67
2023-05-06T07:42:00.555Z,88.86
2023-05-06T07:43:00.557Z,88.95
2023-05-06T07:44:00.570Z,88.38
2023-05-06T07:45:00.633Z,88.48
2023-05-06T07:46:00.589Z,88.29
2023-05-06T07:47:00.719Z,88.04
2023-05-06T07:48:00.628Z,87.95
2023-05-06T07:49:00.615Z,87.95
2023-05-06T07:50:00.599Z,87.66
2023-05-06T07:51:00.622Z,87.76
2023-05-06T07:52:00.644Z,87.66
2023-05-06T07:54:00.638Z,87.56
2023-05-06T07:55:00.641Z,87.47
2023-05-06T07:56:00.662Z,87.08
2023-05-06T07:57:00.661Z,87.47
2023-05-06T07:58:00.669Z,87.37
2023-05-06T07:59:00.675Z,86.99
2023-05-06T08:00:00.678Z,87.27
2023-05-06T08:01:00.692Z,86.70
2023-05-06T08:02:00.693Z,87.08
2023-05-06T08:03:00.773Z,87.32
2023-05-06T08:04:00.830Z,87.13
2023-05-06T08:05:00.742Z,86.55
2023-05-06T08:06:00.740Z,86.55
2023-05-06T08:07:00.739Z,86.36
2023-05-06T08:08:00.778Z,86.55
2023-05-06T08:09:00.759Z,86.36
2023-05-06T08:10:00.765Z,86.55
2023-05-06T08:11:01.789Z,86.08
2023-05-06T08:12:00.788Z,86.17
2023-05-06T08:13:00.832Z,86.27
2023-05-06T08:14:00.801Z,85.88
2023-05-06T08:15:00.811Z,86.17
2023-05-06T08:16:00.821Z,85.31
2023-05-06T09:23:51.817Z,82.32
2023-05-06T09:24:51.732Z,82.23
2023-05-06T09:25:51.760Z,82.62
2023-05-06T09:26:51.756Z,83.09
2023-05-06T19:27:47.997Z,86.30
2023-05-06T19:28:47.902Z,86.30
2023-05-06T19:29:47.911Z,86.10
2023-05-06T19:30:47.935Z,86.58
2023-05-06T19:31:47.923Z,86.68
2023-05-06T19:32:47.958Z,86.68
2023-05-06T19:33:47.940Z,86.39
2023-05-06T19:34:47.944Z,86.24
2023-05-06T19:35:47.946Z,86.63
2023-05-06T19:36:47.957Z,86.05
2023-05-06T19:37:47.951Z,86.30
2023-05-06T19:38:47.964Z,86.20
2023-05-06T19:39:47.969Z,86.10
2023-05-06T19:40:48.088Z,86.10
2023-05-06T19:41:48.187Z,86.58
2023-05-06T19:42:47.988Z,86.20
2023-05-06T19:43:48.105Z,86.49
2023-05-06T19:44:48.000Z,86.96
2023-05-06T19:45:48.043Z,87.06
2023-05-06T19:46:48.042Z,86.68
2023-05-06T19:47:48.063Z,86.96
2023-05-06T19:48:48.025Z,87.15
2023-05-06T19:49:48.033Z,87.35
2023-05-06T19:50:48.042Z,87.25
2023-05-06T19:51:48.045Z,87.35
2023-05-06T19:52:48.052Z,87.35
2023-05-06T19:53:48.059Z,87.35
2023-05-06T19:54:48.075Z,87.15
2023-05-06T19:55:48.101Z,86.77
2023-05-06T19:56:48.105Z,86.96
2023-05-06T19:57:48.087Z,87.06
2023-05-06T19:58:48.102Z,86.87
2023-05-06T19:59:48.195Z,86.96
2023-05-06T20:00:48.112Z,87.15
2023-05-06T20:01:48.159Z,86.87
2023-05-06T20:02:48.155Z,86.87
2023-05-06T20:03:48.216Z,87.15
2023-05-06T20:04:48.148Z,87.02
2023-05-06T20:05:48.153Z,87.68
2023-05-06T20:06:48.146Z,87.49
2023-05-06T20:07:48.160Z,87.44
2023-05-06T20:08:48.178Z,87.06
2023-05-06T20:09:49.188Z,87.73
2023-05-06T20:10:48.185Z,87.40
2023-05-06T20:11:48.181Z,87.73
2023-05-06T20:12:48.259Z,87.54
2023-05-06T20:13:48.200Z,87.54
2023-05-06T20:14:48.202Z,87.30
2023-05-06T20:15:48.340Z,87.40
2023-05-06T20:16:48.260Z,87.40
2023-05-06T20:17:48.277Z,87.68
2023-05-06T20:18:48.246Z,87.68
2023-05-06T20:19:48.254Z,87.59
2023-05-06T20:20:48.256Z,87.68
2023-05-06T20:21:48.253Z,87.78
2023-05-06T20:22:48.266Z,87.78
2023-05-06T20:23:48.264Z,87.68
2023-05-06T20:24:48.281Z,87.68
2023-05-06T20:25:48.285Z,88.35
2023-05-06T20:26:48.296Z,87.97
2023-05-06T20:27:48.298Z,87.97
2023-05-06T20:28:48.304Z,87.78
2023-05-06T20:29:48.318Z,87.97
2023-05-06T20:30:48.328Z,87.78
2023-05-06T20:31:48.461Z,87.97
2023-05-06T20:32:50.720Z,88.11
2023-05-06T20:33:48.347Z,87.87
2023-05-06T20:34:48.361Z,88.01
2023-05-06T20:35:48.347Z,88.01
2023-05-06T20:36:48.357Z,88.20
2023-05-06T20:37:48.366Z,87.54
2023-05-06T20:38:48.376Z,87.92
2023-05-06T20:39:48.384Z,88.20
2023-05-06T20:40:48.389Z,87.54
2023-05-06T20:41:48.401Z,87.92
2023-05-06T20:42:48.413Z,87.82
2023-05-06T20:43:48.411Z,88.11
2023-05-06T20:44:48.412Z,87.78
2023-05-06T20:45:48.450Z,87.54
2023-05-06T20:46:48.426Z,87.59
2023-05-06T20:47:48.622Z,87.97
2023-05-06T20:48:48.445Z,87.59
2023-05-06T20:49:48.442Z,88.07
2023-05-06T20:50:48.456Z,88.07
2023-05-06T20:51:48.462Z,87.97
2023-05-06T20:52:48.478Z,87.68
2023-05-06T20:53:48.472Z,87.78
2023-05-06T20:54:48.497Z,88.35
2023-05-06T20:55:48.540Z,87.97
2023-05-06T20:56:48.486Z,88.35
2023-05-06T20:57:48.502Z,88.45
2023-05-06T20:58:48.503Z,88.16
2023-05-06T20:59:48.509Z,88.07
2023-05-06T21:00:48.557Z,88.07
2023-05-06T21:01:48.531Z,88.07
2023-05-06T21:02:48.664Z,88.35
2023-05-06T21:03:48.744Z,88.07
2023-05-06T21:04:48.542Z,88.45
2023-05-06T21:05:48.555Z,89.02
2023-05-06T21:06:48.562Z,88.73
2023-05-06T21:07:48.568Z,88.64
2023-05-06T21:08:48.568Z,88.83
2023-05-06T21:09:48.594Z,89.02
2023-05-06T21:10:48.590Z,88.73
2023-05-06T21:11:48.592Z,89.02
2023-05-06T21:12:48.636Z,89.02
2023-05-06T21:13:50.200Z,88.83
2023-05-06T21:14:48.612Z,89.31
2023-05-06T21:15:48.623Z,89.31
2023-05-06T21:16:48.627Z,89.88
2023-05-06T21:17:48.682Z,89.69
2023-05-06T21:18:48.678Z,89.74
2023-05-06T21:19:48.756Z,89.45
2023-05-06T21:20:48.657Z,89.83
